^^
Datos históricos de la estación: Murcia-Puente Tocinos
Diario Informe para Diciembre 27, 2019 Unidades:  Métrico    Ingés   Ambas
Diario Semanal Mensual Anual
  Máxima: Mínima: Promedio:
Temperatura: 18.7 °C 8.9 °C 12.9 °C
Punto de rocio: 10.8 °C 5.8 °C 8 °C
Humedad: 88% 51.8% 73%
Velocidad viento: 8.4km/h 0km/h 4.4km/h
Racha viento: 14.5km/h - -
Viento- - SSE
Presión: 1029.4 hPa 1026.2 hPa -
Precipitación: 0.0 mm    
 
 
Tabla de datos para Diciembre 27, 2019
Hora Temperatura Punto de rocio Presión Viento Velocidad viento Racha viento Humedad Intensidad lluvia(por hora) Nubes
00:04 12.1 °C 8.4 °C 1028.2 hPa ONO 2.5 km/h 6.4 km/h 78.3% 0.0 mm
00:09 12.1 °C 8.6 °C 1028.2 hPa ONO 2.2 km/h 5.6 km/h 79% 0.0 mm
00:14 12.1 °C 8.6 °C 1028.2 hPa ONO 2.2 km/h 4.8 km/h 79% 0.0 mm
00:19 12.1 °C 8.6 °C 1028.2 hPa ONO 2.2 km/h   79% 0.0 mm
00:24 12.2 °C 8.7 °C 1028.3 hPa ONO 0.9 km/h   79% 0.0 mm
00:29 12.2 °C 8.7 °C 1028.3 hPa Calm   2.3 km/h 79% 0.0 mm
00:34 12.2 °C 8.7 °C 1028.3 hPa Calm   5.8 km/h 79% 0.0 mm
00:39 12.2 °C 8.6 °C 1028.4 hPa Calm   7.6 km/h 79% 0.0 mm
00:44 12.1 °C 8.5 °C 1028.4 hPa SE 2.3 km/h 8 km/h 79% 0.0 mm
00:49 11.9 °C 8.5 °C 1028.4 hPa SSE 3.9 km/h 9.3 km/h 79.4% 0.0 mm
00:54 11.8 °C 8.5 °C 1028.5 hPa Sur 4.3 km/h 9.7 km/h 80% 0.0 mm
00:59 11.8 °C 8.4 °C 1028.5 hPa Sur 4.7 km/h 8 km/h 80% 0.0 mm
01:04 11.8 °C 8.4 °C 1028.5 hPa Sur 4.7 km/h 10.3 km/h 80% 0.0 mm
01:09 11.8 °C 8.4 °C 1028.5 hPa Sur 4.7 km/h 11.3 km/h 79.5% 0.0 mm
01:14 11.8 °C 8.3 °C 1028.5 hPa Sur 5.7 km/h 11.3 km/h 79% 0.0 mm
01:19 11.8 °C 8.3 °C 1028.5 hPa Sur 6.5 km/h 9.7 km/h 78.9% 0.0 mm
01:24 11.9 °C 8.2 °C 1028.5 hPa Sur 6.1 km/h 8.4 km/h 78% 0.0 mm
01:29 11.9 °C 8.1 °C 1028.3 hPa SSE 5.8 km/h 9.3 km/h 77.6% 0.0 mm
01:34 11.9 °C 8 °C 1028.3 hPa SSE 5.3 km/h 9.7 km/h 77% 0.0 mm
01:39 11.8 °C 8 °C 1028.4 hPa SSE 5 km/h 9.7 km/h 77.3% 0.0 mm
01:44 11.8 °C 8.1 °C 1028.4 hPa Sur 4.8 km/h 8 km/h 78% 0.0 mm
01:49 11.7 °C 8 °C 1028.4 hPa Sur 4.6 km/h 8 km/h 78% 0.0 mm
01:54 11.6 °C 7.8 °C 1028.4 hPa Sur 4.2 km/h 8 km/h 78% 0.0 mm
01:59 11.4 °C 7.7 °C 1028.4 hPa SSO 3.9 km/h 8 km/h 78% 0.0 mm
02:04 11.4 °C 7.7 °C 1028.4 hPa SSO 3.5 km/h 8 km/h 78% 0.0 mm
02:09 11.4 °C 7.7 °C 1028.4 hPa SO 3.2 km/h 8 km/h 78% 0.0 mm
02:14 11.4 °C 7.5 °C 1028.3 hPa NNO 4.1 km/h 8 km/h 77.2% 0.0 mm
02:19 11.3 °C 7.6 °C 1028.3 hPa NNO 4.6 km/h 8 km/h 77.9% 0.0 mm
02:24 11.2 °C 7.5 °C 1028.5 hPa NNO 3.2 km/h 5 km/h 78% 0.0 mm
02:29 11.2 °C 7.5 °C 1028.5 hPa NNO 2.2 km/h 5.6 km/h 78% 0.0 mm
02:34 11.2 °C 7.5 °C 1028.5 hPa NO 2.2 km/h 5.8 km/h 78% 0.0 mm
02:39 11.1 °C 7.4 °C 1028.6 hPa Oeste 2.2 km/h 6.4 km/h 78.2% 0.0 mm
02:44 10.9 °C 7.4 °C 1028.6 hPa Oeste 2.8 km/h 5.6 km/h 79% 0.0 mm
02:49 10.9 °C 7.4 °C 1028.6 hPa Oeste 3.2 km/h 5 km/h 79% 0.0 mm
02:54 10.9 °C 7.3 °C 1028.6 hPa OSO 3 km/h 7.6 km/h 78.8% 0.0 mm
02:59 10.9 °C 7.2 °C 1028.6 hPa SSE 2.9 km/h 9.3 km/h 78% 0.0 mm
03:04 10.9 °C 7.2 °C 1028.6 hPa SSE 4.3 km/h 9.7 km/h 78% 0.0 mm
03:09 10.9 °C 7.2 °C 1028.7 hPa SSE 5 km/h 8 km/h 78% 0.0 mm
03:14 10.9 °C 7.2 °C 1028.7 hPa Sur 4.8 km/h 9.3 km/h 78% 0.0 mm
03:19 10.8 °C 7.2 °C 1028.7 hPa SSE 4.6 km/h 9.7 km/h 78.2% 0.0 mm
03:24 10.8 °C 7.1 °C 1028.7 hPa Sur 4.7 km/h 9.5 km/h 78.1% 0.0 mm
03:29 10.7 °C 7 °C 1028.7 hPa SSE 4.7 km/h 9.7 km/h 78% 0.0 mm
03:34 10.7 °C 7 °C 1028.7 hPa Sur 5.7 km/h 10 km/h 78% 0.0 mm
03:39 10.7 °C 7 °C 1028.7 hPa SE 6.5 km/h 9.7 km/h 78% 0.0 mm
03:44 10.7 °C 7 °C 1028.6 hPa SSE 6.1 km/h 9.5 km/h 78% 0.0 mm
03:49 10.6 °C 6.9 °C 1028.6 hPa Sur 5.8 km/h 10 km/h 78% 0.0 mm
03:54 10.6 °C 6.9 °C 1028.6 hPa Sur 6.2 km/h 9.7 km/h 78% 0.0 mm
03:59 10.6 °C 6.8 °C 1028.6 hPa SSO 6.5 km/h 10 km/h 77.3% 0.0 mm
04:04 10.7 °C 6.9 °C 1028.6 hPa SSO 6.1 km/h 9.7 km/h 77% 0.0 mm
04:09 10.8 °C 6.8 °C 1028.6 hPa SSO 5.8 km/h 9.7 km/h 76.1% 0.0 mm
04:14 10.9 °C 6.8 °C 1028.6 hPa SSO 5.8 km/h 10 km/h 76% 0.0 mm
04:19 11 °C 6.8 °C 1028.6 hPa SSE 5.8 km/h 9.7 km/h 75.5% 0.0 mm
04:24 11.1 °C 6.8 °C 1028.6 hPa Sur 5.8 km/h 11.9 km/h 75.1% 0.0 mm
04:29 11 °C 6.7 °C 1028.6 hPa Sur 5.8 km/h 11.3 km/h 75% 0.0 mm
04:34 10.9 °C 6.7 °C 1028.6 hPa SSE 5.8 km/h 10 km/h 75% 0.0 mm
04:39 10.8 °C 6.6 °C 1028.6 hPa SSE 5.8 km/h 10 km/h 75.6% 0.0 mm
04:44 10.6 °C 6.7 °C 1028.5 hPa Sur 6.2 km/h 9.7 km/h 76.8% 0.0 mm
04:49 10.5 °C 6.6 °C 1028.5 hPa SSE 6.5 km/h 9.5 km/h 77% 0.0 mm
04:54 10.4 °C 6.6 °C 1028.5 hPa SSE 6.5 km/h 9.7 km/h 77.3% 0.0 mm
04:59 10.2 °C 6.6 °C 1028.3 hPa SSE 6.5 km/h 10.3 km/h 78% 0.0 mm
05:04 10 °C 6.5 °C 1028.3 hPa SE 6.5 km/h 11.3 km/h 79% 0.0 mm
05:09 9.9 °C 6.5 °C 1028.3 hPa SSE 6.5 km/h 9.7 km/h 79.8% 0.0 mm
05:14 9.8 °C 6.5 °C 1028.2 hPa Sur 5.6 km/h 8 km/h 80% 0.0 mm
05:19 9.8 °C 6.6 °C 1028.2 hPa SSE 5 km/h 8 km/h 80.7% 0.0 mm
05:24 9.8 °C 6.5 °C 1028.2 hPa SSE 5 km/h 8 km/h 80% 0.0 mm
05:29 9.7 °C 6.4 °C 1028.0 hPa Sur 5 km/h 8 km/h 80.2% 0.0 mm
05:34 9.7 °C 6.6 °C 1028.0 hPa Sur 4.3 km/h 7.4 km/h 81% 0.0 mm
05:39 9.7 °C 6.6 °C 1028.0 hPa SSE 3.9 km/h 8 km/h 81% 0.0 mm
05:44 9.7 °C 6.4 °C 1028.0 hPa SE 3.9 km/h 7.6 km/h 80.1% 0.0 mm
05:49 9.5 °C 6.3 °C 1028.0 hPa SSE 3.9 km/h 8 km/h 80.6% 0.0 mm
05:54 9.4 °C 6.3 °C 1028.0 hPa SSE 4.5 km/h 8.4 km/h 81% 0.0 mm
05:59 9.4 °C 6.3 °C 1027.9 hPa SSE 5 km/h 8 km/h 81% 0.0 mm
06:04 9.4 °C 6.3 °C 1027.9 hPa SE 5 km/h 8 km/h 81% 0.0 mm
06:09 9.4 °C 6.3 °C 1027.9 hPa SSE 5 km/h 10 km/h 81% 0.0 mm
06:14 9.3 °C 6.2 °C 1027.9 hPa SSE 5.5 km/h 9.7 km/h 81% 0.0 mm
06:19 9.3 °C 6.2 °C 1027.9 hPa SSE 5.8 km/h 9.7 km/h 81.1% 0.0 mm
06:24 9.3 °C 6.3 °C 1027.9 hPa SSE 6.2 km/h 9.5 km/h 82% 0.0 mm
06:29 9.3 °C 6.3 °C 1027.9 hPa Sur 6.5 km/h 11.1 km/h 81.7% 0.0 mm
06:34 9.4 °C 6.3 °C 1027.9 hPa SSE 6.7 km/h 11.9 km/h 81% 0.0 mm
06:39 9.4 °C 6.3 °C 1028.0 hPa Sur 6.9 km/h 11.3 km/h 81% 0.0 mm
06:44 9.5 °C 6.3 °C 1028.0 hPa Sur 7.3 km/h 11.3 km/h 81% 0.0 mm
06:49 9.5 °C 6.4 °C 1028.0 hPa SSE 7.6 km/h 10 km/h 81% 0.0 mm
06:54 9.6 °C 6.3 °C 1028.2 hPa Sur 7.2 km/h 11.1 km/h 80% 0.0 mm
06:59 9.6 °C 6.3 °C 1028.2 hPa Sur 6.9 km/h 11.3 km/h 80% 0.0 mm
07:04 9.6 °C 6.3 °C 1028.2 hPa Sur 6.9 km/h 10 km/h 80% 0.0 mm
07:09 9.6 °C 6.3 °C 1028.3 hPa SSE 6.9 km/h 9.7 km/h 80% 0.0 mm
07:14 9.6 °C 6.3 °C 1028.3 hPa SSE 6.3 km/h 9.7 km/h 80% 0.0 mm
07:19 9.6 °C 6.3 °C 1028.3 hPa SSE 5.8 km/h 9.7 km/h 80% 0.0 mm
07:24 9.4 °C 6.1 °C 1028.3 hPa Sur 5.8 km/h 9.7 km/h 80% 0.0 mm
07:29 9.4 °C 6.1 °C 1028.2 hPa Sur 5.8 km/h 10 km/h 80% 0.0 mm
07:34 9.4 °C 6.2 °C 1028.2 hPa Sur 6.2 km/h 11.1 km/h 80% 0.0 mm
07:39 9.5 °C 6.3 °C 1028.4 hPa Sur 6.5 km/h 11.3 km/h 80% 0.0 mm
07:44 9.6 °C 6.3 °C 1028.4 hPa Sur 6.5 km/h 11.3 km/h 79.8% 0.0 mm
07:49 9.6 °C 6.1 °C 1028.4 hPa Sur 6.5 km/h 9.7 km/h 79% 0.0 mm
07:54 9.6 °C 6.1 °C 1028.5 hPa SSE 6.1 km/h 9.7 km/h 79% 0.0 mm
07:59 9.6 °C 6.1 °C 1028.5 hPa SSE 5.8 km/h 9.7 km/h 79% 0.0 mm
08:04 9.5 °C 6.1 °C 1028.5 hPa SSE 5.8 km/h 9.7 km/h 79% 0.0 mm
08:09 9.4 °C 6.1 °C 1028.6 hPa SSE 5.8 km/h 9.3 km/h 79.7% 0.0 mm
08:14 9.3 °C 6 °C 1028.6 hPa SSE 5.3 km/h 9.7 km/h 80% 0.0 mm
08:19 9.3 °C 6 °C 1028.6 hPa Sur 5 km/h 9.7 km/h 80% 0.0 mm
08:24 9.4 °C 6.1 °C 1028.6 hPa SSE 5.5 km/h 8 km/h 80% 0.0 mm
08:29 9.3 °C 6.1 °C 1028.6 hPa ESE 5.8 km/h 8 km/h 80% 0.0 mm
08:34 9.2 °C 5.9 °C 1028.6 hPa SE 5.3 km/h 10 km/h 80% 0.0 mm
08:39 9 °C 5.9 °C 1028.6 hPa SSE 5 km/h 9.7 km/h 81% 0.0 mm
08:44 8.9 °C 5.8 °C 1028.6 hPa SSE 5.8 km/h 9.7 km/h 81% 0.0 mm
08:49 9 °C 6.1 °C 1028.6 hPa Sur 6.5 km/h 10 km/h 82% 0.0 mm
08:54 9.1 °C 6 °C 1028.8 hPa Sur 6.5 km/h 11.1 km/h 81% 0.0 mm
08:59 9.2 °C 6.1 °C 1028.8 hPa Sur 6.5 km/h 11.3 km/h 80.9% 0.0 mm
09:04 9.3 °C 6 °C 1028.8 hPa SSE 6.8 km/h 11.3 km/h 80% 0.0 mm
09:09 9.3 °C 6 °C 1028.8 hPa SSE 6.9 km/h 10 km/h 80% 0.0 mm
09:14 9.3 °C 6 °C 1028.8 hPa SSE 6.9 km/h 11.9 km/h 80% 0.0 mm
09:19 9.3 °C 6.1 °C 1028.8 hPa SSE 6.9 km/h 11.3 km/h 80% 0.0 mm
09:24 9.5 °C 6.1 °C 1029.0 hPa SSE 7.8 km/h 11.3 km/h 79.8% 0.0 mm
09:29 9.6 °C 6.1 °C 1029.0 hPa SSE 8.4 km/h 11.9 km/h 79% 0.0 mm
09:34 9.7 °C 6.2 °C 1029.0 hPa SSE 8.4 km/h 13 km/h 78.5% 0.0 mm
09:39 9.8 °C 6.2 °C 1029.1 hPa Sur 8.4 km/h 12.9 km/h 78% 0.0 mm
09:44 10 °C 6.3 °C 1029.1 hPa SSE 7.9 km/h 11.3 km/h 77.7% 0.0 mm
09:49 10.3 °C 6.4 °C 1029.1 hPa SSE 7.6 km/h 11.3 km/h 77% 0.0 mm
09:54 10.5 °C 6.5 °C 1029.1 hPa SSE 7.2 km/h 9.7 km/h 76.2% 0.0 mm
09:59 10.7 °C 6.5 °C 1029.1 hPa Sur 6.9 km/h 10 km/h 75.3% 0.0 mm
10:04 10.8 °C 6.6 °C 1029.1 hPa Sur 6.6 km/h 10 km/h 75% 0.0 mm
10:09 11.1 °C 6.7 °C 1029.3 hPa Sur 6.5 km/h 11.1 km/h 74.4% 0.0 mm
10:14 11.3 °C 6.7 °C 1029.3 hPa Sur 6.5 km/h 11.3 km/h 73.4% 0.0 mm
10:19 11.5 °C 6.7 °C 1029.3 hPa SSO 6.5 km/h 9.7 km/h 72.6% 0.0 mm
10:24 11.6 °C 6.7 °C 1029.4 hPa SSO 6.1 km/h 10 km/h 71.9% 0.0 mm
10:29 11.6 °C 6.6 °C 1029.4 hPa SSO 5.8 km/h 9.7 km/h 71.5% 0.0 mm
10:34 11.7 °C 6.6 °C 1029.4 hPa Sur 5.8 km/h 9.7 km/h 71.1% 0.0 mm
10:39 11.7 °C 6.8 °C 1029.4 hPa Sur 5.8 km/h 10 km/h 71.6% 0.0 mm
10:44 11.8 °C 6.9 °C 1029.4 hPa Sur 5.8 km/h 9.7 km/h 72% 0.0 mm
10:49 11.9 °C 6.8 °C 1029.4 hPa Sur 5.8 km/h 11.9 km/h 71.1% 0.0 mm
10:54 11.9 °C 6.8 °C 1029.4 hPa Sur 6.8 km/h 13 km/h 70.9% 0.0 mm
10:59 12.1 °C 6.9 °C 1029.4 hPa SSO 7.6 km/h 13.7 km/h 70.5% 0.0 mm
11:04 12.2 °C 7 °C 1029.4 hPa Sur 8.1 km/h 14.5 km/h 70.6% 0.0 mm
11:09 12.3 °C 6.9 °C 1029.4 hPa Sur 8.4 km/h 11.3 km/h 69.6% 0.0 mm
11:14 12.4 °C 7 °C 1029.4 hPa Sur 7.5 km/h 11.3 km/h 69.5% 0.0 mm
11:19 12.6 °C 7.1 °C 1029.4 hPa Sur 6.9 km/h 10 km/h 69.2% 0.0 mm
11:24 12.7 °C 7.1 °C 1029.4 hPa Sur 6.3 km/h 9.7 km/h 68.7% 0.0 mm
11:29 12.9 °C 7.2 °C 1029.3 hPa Sur 5.8 km/h 9.7 km/h 68.6% 0.0 mm
11:34 13.1 °C 7.2 °C 1029.3 hPa SSO 5.3 km/h 9.7 km/h 67.6% 0.0 mm
11:39 13.2 °C 7.2 °C 1029.3 hPa Sur 5 km/h 9.7 km/h 67% 0.0 mm
11:44 13.4 °C 7.2 °C 1029.2 hPa OSO 4.8 km/h 8 km/h 66.2% 0.0 mm
11:49 13.7 °C 7.4 °C 1029.2 hPa Sur 4.7 km/h 8 km/h 66.1% 0.0 mm
11:54 13.9 °C 7.4 °C 1029.2 hPa SO 3.6 km/h 8 km/h 64.9% 0.0 mm
11:59 14.1 °C 7.4 °C 1029.1 hPa SO 2.9 km/h 8 km/h 64.2% 0.0 mm
12:04 14.3 °C 7.6 °C 1029.1 hPa SO 3.1 km/h 7.4 km/h 64.1% 0.0 mm
12:09 14.5 °C 7.5 °C 1029.1 hPa Oeste 3.2 km/h 8 km/h 63% 0.0 mm
12:14 14.6 °C 7.6 °C 1029.0 hPa Oeste 4.1 km/h 8 km/h 63% 0.0 mm
12:19 14.6 °C 7.6 °C 1029.0 hPa Oeste 4.7 km/h 8 km/h 63% 0.0 mm
12:24 14.8 °C 7.8 °C 1029.0 hPa OSO 3.8 km/h 8.4 km/h 63% 0.0 mm
12:29 15.1 °C 7.9 °C 1028.8 hPa SO 3.2 km/h 8.4 km/h 62% 0.0 mm
12:34 15.2 °C 7.9 °C 1028.8 hPa OSO 4.3 km/h 8 km/h 62% 0.0 mm
12:39 15.3 °C 8 °C 1028.8 hPa SO 5 km/h 8 km/h 61.8% 0.0 mm
12:44 15.5 °C 8 °C 1028.6 hPa Oeste 4 km/h 8 km/h 61% 0.0 mm
12:49 15.7 °C 8.2 °C 1028.6 hPa OSO 3.2 km/h 5.8 km/h 60.9% 0.0 mm
12:54 15.9 °C 8.2 °C 1028.6 hPa SO 3 km/h 7.4 km/h 60.1% 0.0 mm
12:59 16.2 °C 8.5 °C 1028.4 hPa SE 2.9 km/h 8.4 km/h 60.1% 0.0 mm
13:04 16.4 °C 8.8 °C 1028.4 hPa SSE 3.5 km/h 8 km/h 60.9% 0.0 mm
13:09 16.7 °C 8.9 °C 1028.4 hPa SE 3.9 km/h 8 km/h 60.3% 0.0 mm
13:14 16.8 °C 9.2 °C 1028.1 hPa SE 3.9 km/h 8 km/h 61% 0.0 mm
13:19 17 °C 9.3 °C 1028.1 hPa Este 3.9 km/h 7.6 km/h 60.3% 0.0 mm
13:24 17.2 °C 9.1 °C 1028.1 hPa NE 3.3 km/h 8 km/h 59.2% 0.0 mm
13:29 17.1 °C 9.3 °C 1027.7 hPa ESE 2.9 km/h 8.4 km/h 60% 0.0 mm
13:34 17.2 °C 9.3 °C 1027.7 hPa ESE 3.5 km/h 8.4 km/h 60% 0.0 mm
13:39 17.3 °C 9.5 °C 1027.7 hPa ENE 3.9 km/h 8 km/h 60.2% 0.0 mm
13:44 17.3 °C 9.4 °C 1027.5 hPa ENE 3.5 km/h 7.4 km/h 60% 0.0 mm
13:49 17.2 °C 9.4 °C 1027.5 hPa Este 3.2 km/h 8 km/h 60% 0.0 mm
13:54 17.2 °C 9.4 °C 1027.5 hPa SE 3.6 km/h 8 km/h 60% 0.0 mm
13:59 17.2 °C 9.4 °C 1027.3 hPa Oeste 3.9 km/h 8.4 km/h 60% 0.0 mm
14:04 17.3 °C 9.4 °C 1027.3 hPa Oeste 3.4 km/h 10 km/h 59.9% 0.0 mm
14:09 17.2 °C 9.4 °C 1027.3 hPa Oeste 3.2 km/h 9.7 km/h 60% 0.0 mm
14:14 17.3 °C 9.5 °C 1027.2 hPa Sur 4.1 km/h 9.3 km/h 60% 0.0 mm
14:19 17.4 °C 9.5 °C 1027.2 hPa SSO 4.6 km/h 9.7 km/h 59.8% 0.0 mm
14:24 17.5 °C 9.4 °C 1027.2 hPa Oeste 4.2 km/h 8.4 km/h 59% 0.0 mm
14:29 17.6 °C 9.4 °C 1027.0 hPa NNO 3.9 km/h 8 km/h 59% 0.0 mm
14:34 17.7 °C 9.4 °C 1027.0 hPa ESE 3.3 km/h 7.6 km/h 58.3% 0.0 mm
14:39 17.7 °C 9.3 °C 1027.0 hPa SE 2.9 km/h 8 km/h 57.8% 0.0 mm
14:44 17.8 °C 9.3 °C 1026.7 hPa Sur 3.5 km/h 8 km/h 57.5% 0.0 mm
14:49 17.9 °C 9.3 °C 1026.7 hPa SO 3.9 km/h 11.9 km/h 57% 0.0 mm
14:54 17.9 °C 9.3 °C 1026.7 hPa SSO 4.3 km/h 11.3 km/h 57% 0.0 mm
14:59 17.9 °C 9.3 °C 1026.7 hPa SE 4.7 km/h 9.5 km/h 57% 0.0 mm
15:04 17.9 °C 9.2 °C 1026.7 hPa SE 4.9 km/h 9.7 km/h 56.9% 0.0 mm
15:09 17.8 °C 9.1 °C 1026.7 hPa ESE 5 km/h 8 km/h 56.5% 0.0 mm
15:14 17.9 °C 9.1 °C 1026.5 hPa SE 4.3 km/h 10 km/h 56.3% 0.0 mm
15:19 17.9 °C 9.1 °C 1026.5 hPa SE 3.9 km/h 9.7 km/h 56.1% 0.0 mm
15:24 18.1 °C 9 °C 1026.5 hPa ESE 4.3 km/h 8 km/h 55.5% 0.0 mm
15:29 18.1 °C 8.9 °C 1026.4 hPa SSE 4.7 km/h 8 km/h 55% 0.0 mm
15:34 18.2 °C 9 °C 1026.4 hPa Sur 4.7 km/h 11.1 km/h 55.2% 0.0 mm
15:39 18.2 °C 8.9 °C 1026.5 hPa SSO 4.7 km/h 11.3 km/h 54.6% 0.0 mm
15:44 18.2 °C 8.8 °C 1026.5 hPa SO 4.7 km/h 8 km/h 54% 0.0 mm
15:49 18.4 °C 8.6 °C 1026.5 hPa SO 4.7 km/h 4.8 km/h 53% 0.0 mm
15:54 18.6 °C 8.8 °C 1026.5 hPa SO 1.9 km/h 5 km/h 52.8% 0.0 mm
15:59 18.7 °C 8.5 °C 1026.5 hPa Calm   5.8 km/h 51.8% 0.0 mm
16:04 18.6 °C 8.6 °C 1026.5 hPa ENE 2.1 km/h 8.4 km/h 52% 0.0 mm
16:09 18.5 °C 8.5 °C 1026.5 hPa NE 3.2 km/h 8 km/h 52.1% 0.0 mm
16:14 18.3 °C 8.5 °C 1026.5 hPa NNE 4.1 km/h 9.3 km/h 52.9% 0.0 mm
16:19 18.2 °C 8.4 °C 1026.5 hPa NNE 4.7 km/h 9.7 km/h 53% 0.0 mm
16:24 18.1 °C 8.6 °C 1026.5 hPa NNE 4.2 km/h 8 km/h 53.6% 0.0 mm
16:29 18.2 °C 8.4 °C 1026.5 hPa NNE 3.9 km/h 7.4 km/h 52.9% 0.0 mm
16:34 18.1 °C 8.2 °C 1026.5 hPa NE 3.9 km/h 8 km/h 52.3% 0.0 mm
16:39 18.1 °C 8.4 °C 1026.5 hPa NE 3.9 km/h 8 km/h 53% 0.0 mm
16:44 18.1 °C 8.5 °C 1026.5 hPa NE 4.3 km/h 8 km/h 53.4% 0.0 mm
16:49 18.1 °C 8.7 °C 1026.5 hPa ENE 4.7 km/h 8 km/h 54% 0.0 mm
16:54 18.1 °C 8.7 °C 1026.5 hPa ENE 4.1 km/h 8 km/h 54% 0.0 mm
16:59 18 °C 8.5 °C 1026.5 hPa NE 3.9 km/h 8.4 km/h 54% 0.0 mm
17:04 17.9 °C 8.5 °C 1026.5 hPa ENE 4.6 km/h 8 km/h 54.1% 0.0 mm
17:09 17.9 °C 8.6 °C 1026.5 hPa NE 5 km/h 8.4 km/h 54.5% 0.0 mm
17:14 17.8 °C 8.6 °C 1026.5 hPa NE 4.8 km/h 8 km/h 55.1% 0.0 mm
17:19 17.8 °C 8.9 °C 1026.5 hPa NE 4.6 km/h 8 km/h 56% 0.0 mm
17:24 17.7 °C 8.9 °C 1026.5 hPa ENE 4.7 km/h 8 km/h 56.1% 0.0 mm
17:29 17.7 °C 9 °C 1026.4 hPa NE 4.7 km/h 8 km/h 56.9% 0.0 mm
17:34 17.6 °C 9 °C 1026.4 hPa ENE 4.2 km/h 8 km/h 57% 0.0 mm
17:39 17.5 °C 9.1 °C 1026.4 hPa Este 3.9 km/h 8 km/h 57.6% 0.0 mm
17:44 17.4 °C 9.1 °C 1026.3 hPa ENE 3.9 km/h 8 km/h 58% 0.0 mm
17:49 17.3 °C 8.9 °C 1026.3 hPa ENE 3.9 km/h 9.3 km/h 58.2% 0.0 mm
17:54 17.2 °C 9.1 °C 1026.3 hPa ENE 3.9 km/h 9.7 km/h 59% 0.0 mm
17:59 17 °C 9.1 °C 1026.3 hPa ENE 3.9 km/h 8 km/h 59.5% 0.0 mm
18:04 16.9 °C 9.1 °C 1026.3 hPa Este 3.4 km/h 6.4 km/h 60% 0.0 mm
18:09 16.8 °C 9.1 °C 1026.3 hPa Este 3.2 km/h 8 km/h 60.5% 0.0 mm
18:14 16.8 °C 9.2 °C 1026.2 hPa ESE 3.6 km/h 8 km/h 61.3% 0.0 mm
18:19 16.6 °C 9.3 °C 1026.2 hPa ESE 3.9 km/h 8 km/h 62% 0.0 mm
18:24 16.4 °C 9.3 °C 1026.3 hPa ESE 4.3 km/h 8 km/h 63.1% 0.0 mm
18:29 16.2 °C 9.4 °C 1026.3 hPa ESE 4.7 km/h 8 km/h 64.5% 0.0 mm
18:34 15.9 °C 9.5 °C 1026.3 hPa ESE 4.7 km/h 8 km/h 65.9% 0.0 mm
18:39 15.7 °C 9.8 °C 1026.3 hPa ESE 4.7 km/h 8.4 km/h 67.9% 0.0 mm
18:44 15.5 °C 10 °C 1026.2 hPa ESE 4.7 km/h 10 km/h 69.9% 0.0 mm
18:49 15.3 °C 10.2 °C 1026.2 hPa ESE 4.7 km/h 9.7 km/h 71.7% 0.0 mm
18:54 15.2 °C 10.4 °C 1026.4 hPa ESE 4.8 km/h 9.7 km/h 73.1% 0.0 mm
18:59 15 °C 10.5 °C 1026.4 hPa ESE 5 km/h 9.3 km/h 74.4% 0.0 mm
19:04 14.9 °C 10.6 °C 1026.4 hPa ESE 4.8 km/h 9.7 km/h 75.4% 0.0 mm
19:09 14.8 °C 10.7 °C 1026.5 hPa Este 4.7 km/h 8.4 km/h 76.5% 0.0 mm
19:14 14.7 °C 10.8 °C 1026.5 hPa Este 4.2 km/h 8 km/h 77.4% 0.0 mm
19:19 14.6 °C 10.8 °C 1026.5 hPa ESE 3.9 km/h 8.4 km/h 78.3% 0.0 mm
19:24 14.4 °C 10.8 °C 1026.6 hPa ESE 4.3 km/h 8 km/h 79% 0.0 mm
19:29 14.4 °C 10.8 °C 1026.6 hPa ESE 4.7 km/h 7.4 km/h 79% 0.0 mm
19:34 14.3 °C 10.7 °C 1026.6 hPa ESE 3.8 km/h 8 km/h 79% 0.0 mm
19:39 14.3 °C 10.8 °C 1026.8 hPa ESE 3.2 km/h 5.6 km/h 79.8% 0.0 mm
19:44 14.2 °C 10.6 °C 1026.8 hPa ENE 3.2 km/h 8.4 km/h 78.9% 0.0 mm
19:49 14 °C 10.2 °C 1026.8 hPa NNE 3.2 km/h 8 km/h 77.5% 0.0 mm
19:54 13.8 °C 9.9 °C 1026.8 hPa NNE 4.1 km/h 8 km/h 77% 0.0 mm
19:59 13.7 °C 9.8 °C 1026.8 hPa NNE 4.7 km/h 6.4 km/h 77% 0.0 mm
20:04 13.6 °C 9.7 °C 1026.8 hPa NE 4.1 km/h 8 km/h 77% 0.0 mm
20:09 13.4 °C 9.6 °C 1027.0 hPa NE 3.9 km/h 9.3 km/h 77.9% 0.0 mm
20:14 13.2 °C 9.6 °C 1027.0 hPa NE 3.9 km/h 9.7 km/h 78.9% 0.0 mm
20:19 13.1 °C 9.7 °C 1027.0 hPa NE 3.9 km/h 8 km/h 79.7% 0.0 mm
20:24 13 °C 9.6 °C 1027.0 hPa NE 3.3 km/h 4.8 km/h 80% 0.0 mm
20:29 12.9 °C 9.7 °C 1027.0 hPa NE 2.9 km/h 4.8 km/h 81% 0.0 mm
20:34 12.8 °C 9.7 °C 1027.0 hPa NE 1.2 km/h   81.2% 0.0 mm
20:39 12.8 °C 9.8 °C 1027.1 hPa Calm     82% 0.0 mm
20:44 12.7 °C 9.7 °C 1027.1 hPa Calm     82% 0.0 mm
20:49 12.7 °C 9.7 °C 1027.1 hPa Calm     82% 0.0 mm
20:54 12.6 °C 9.7 °C 1027.1 hPa Calm     82.3% 0.0 mm
20:59 12.6 °C 9.8 °C 1027.0 hPa Calm   6.4 km/h 83% 0.0 mm
21:04 12.6 °C 9.8 °C 1027.0 hPa Sur 1.5 km/h 8 km/h 83% 0.0 mm
21:09 12.7 °C 10 °C 1027.0 hPa Sur 2.2 km/h 8 km/h 83.5% 0.0 mm
21:14 12.7 °C 9.9 °C 1027.0 hPa Sur 3.7 km/h 8 km/h 82.9% 0.0 mm
21:19 12.7 °C 9.6 °C 1027.0 hPa Sur 4.7 km/h 8 km/h 81.5% 0.0 mm
21:24 12.7 °C 9.5 °C 1027.0 hPa Sur 4.2 km/h 8 km/h 80.6% 0.0 mm
21:29 12.7 °C 9.3 °C 1027.0 hPa Sur 3.9 km/h 8 km/h 80% 0.0 mm
21:34 12.7 °C 9.3 °C 1027.0 hPa Sur 2.9 km/h 5.8 km/h 80.1% 0.0 mm
21:39 12.5 °C 9.3 °C 1027.1 hPa Sur 2.2 km/h 6.4 km/h 81% 0.0 mm
21:44 12.3 °C 9.2 °C 1027.1 hPa Sur 2.2 km/h 4.7 km/h 81% 0.0 mm
21:49 12.2 °C 9.2 °C 1027.1 hPa Sur 2.2 km/h 4.8 km/h 82% 0.0 mm
21:54 12.1 °C 9.1 °C 1027.1 hPa Sur 0.9 km/h 1.6 km/h 82% 0.0 mm
21:59 12 °C 9 °C 1027.1 hPa Calm   3.9 km/h 82% 0.0 mm
22:04 11.9 °C 8.9 °C 1027.1 hPa Calm   3.7 km/h 82% 0.0 mm
22:09 11.8 °C 9 °C 1027.1 hPa Calm   3.2 km/h 82.7% 0.0 mm
22:14 11.7 °C 8.9 °C 1027.1 hPa Calm     83% 0.0 mm
22:19 11.7 °C 8.9 °C 1027.1 hPa Calm   3.7 km/h 83% 0.0 mm
22:24 11.7 °C 8.9 °C 1027.3 hPa Calm   5 km/h 83% 0.0 mm
22:29 11.6 °C 8.8 °C 1027.3 hPa Calm   5.6 km/h 83% 0.0 mm
22:34 11.5 °C 8.8 °C 1027.3 hPa SE 1.7 km/h 5.8 km/h 83% 0.0 mm
22:39 11.4 °C 8.6 °C 1027.3 hPa SE 2.9 km/h 8.4 km/h 83% 0.0 mm
22:44 11.3 °C 8.5 °C 1027.3 hPa SE 3.5 km/h 8 km/h 83% 0.0 mm
22:49 11.2 °C 8.5 °C 1027.3 hPa SE 3.9 km/h 8 km/h 83% 0.0 mm
22:54 11.1 °C 8.5 °C 1027.3 hPa SE 3.9 km/h 8 km/h 83.7% 0.0 mm
22:59 11 °C 8.4 °C 1027.3 hPa SE 3.9 km/h 7.4 km/h 84% 0.0 mm
23:04 10.9 °C 8.3 °C 1027.3 hPa SE 3.5 km/h 8 km/h 84% 0.0 mm
23:09 10.8 °C 8.2 °C 1027.4 hPa SE 3.2 km/h 4.8 km/h 84% 0.0 mm
23:14 10.7 °C 8.2 °C 1027.4 hPa SE 2.6 km/h 5.6 km/h 84% 0.0 mm
23:19 10.7 °C 8.1 °C 1027.4 hPa SE 2.2 km/h 4.8 km/h 84% 0.0 mm
23:24 10.6 °C 8.2 °C 1027.6 hPa SE 0.9 km/h 3.2 km/h 84.9% 0.0 mm
23:29 10.5 °C 8.1 °C 1027.6 hPa Calm   3.9 km/h 85% 0.0 mm
23:34 10.4 °C 7.9 °C 1027.6 hPa Calm   5.6 km/h 84.7% 0.0 mm
23:39 10.2 °C 7.6 °C 1027.8 hPa Calm   7.4 km/h 84.2% 0.0 mm
23:44 9.9 °C 7.6 °C 1027.8 hPa NE 2.3 km/h 8 km/h 85.4% 0.0 mm
23:49 9.8 °C 7.6 °C 1027.8 hPa NE 3.9 km/h 8 km/h 86.4% 0.0 mm
23:54 9.7 °C 7.7 °C 1027.8 hPa ENE 4.3 km/h 8 km/h 87.2% 0.0 mm
23:59 9.7 °C 7.8 °C 1027.8 hPa ENE 4.7 km/h 8 km/h 88% 0.0 mm
Murcia-Puente Tocinos, España
Compliments of Weather Underground - 3 mb

La estación de MeteoMurcia.com, publica sus datos en los siguientes proyectos:

Weather Underground PWS IMURCIAP2 Meteoclimatic www.awekas.at

W3Counter
Web Analytics